createdAt,value
2018-11-14T00:02:16.654Z,8.28
2018-11-14T00:04:44.226Z,7.45
2018-11-14T00:07:11.778Z,8.40
2018-11-14T00:09:39.445Z,9.78
2018-11-14T00:12:06.900Z,10.38
2018-11-14T00:14:34.477Z,8.65
2018-11-14T00:17:02.126Z,8.15
2018-11-14T00:19:29.688Z,11.12
2018-11-14T00:21:57.186Z,9.45
2018-11-14T00:24:24.751Z,9.13
2018-11-14T00:26:52.658Z,8.68
2018-11-14T00:29:19.908Z,8.55
2018-11-14T00:31:47.391Z,13.25
2018-11-14T00:34:14.913Z,9.03
2018-11-14T00:36:42.379Z,9.50
2018-11-14T00:39:11.235Z,8.50
2018-11-14T00:41:38.756Z,7.85
2018-11-14T00:44:06.262Z,8.15
2018-11-14T00:46:33.793Z,8.00
2018-11-14T00:49:01.361Z,9.38
2018-11-14T00:51:28.991Z,9.50
2018-11-14T00:53:56.546Z,7.70
2018-11-14T00:56:24.095Z,8.40
2018-11-14T00:58:51.551Z,7.72
2018-11-14T01:01:19.109Z,8.05
2018-11-14T01:03:46.585Z,8.10
2018-11-14T01:06:14.194Z,7.35
2018-11-14T01:08:41.662Z,9.05
2018-11-14T01:11:09.222Z,8.28
2018-11-14T01:13:36.695Z,9.05
2018-11-14T01:16:04.321Z,7.62
2018-11-14T01:18:31.814Z,8.60
2018-11-14T01:20:59.406Z,8.40
2018-11-14T01:23:26.889Z,8.10
2018-11-14T01:25:54.366Z,8.98
2018-11-14T01:28:21.923Z,8.53
2018-11-14T01:30:49.438Z,8.05
2018-11-14T01:33:16.989Z,8.70
2018-11-14T01:35:44.512Z,11.10
2018-11-14T01:38:12.054Z,8.75
2018-11-14T01:40:39.545Z,9.33
2018-11-14T01:43:07.136Z,9.70
2018-11-14T01:45:34.610Z,8.43
2018-11-14T01:48:02.173Z,9.23
2018-11-14T01:50:29.646Z,7.92
2018-11-14T01:52:57.257Z,8.33
2018-11-14T01:55:24.770Z,8.43
2018-11-14T01:57:52.304Z,8.03
2018-11-14T02:00:21.140Z,7.50
2018-11-14T02:02:48.700Z,7.90
2018-11-14T02:05:16.253Z,8.50
2018-11-14T02:07:43.829Z,8.50
2018-11-14T02:10:13.045Z,8.00
2018-11-14T02:12:41.089Z,8.55
2018-11-14T02:15:10.766Z,8.35
2018-11-14T02:17:38.580Z,7.70
2018-11-14T02:20:06.710Z,8.48
2018-11-14T02:22:34.196Z,7.62
2018-11-14T02:25:02.060Z,7.42
2018-11-14T02:27:29.529Z,8.63
2018-11-14T02:29:57.060Z,11.05
2018-11-14T02:32:24.519Z,8.20
2018-11-14T02:34:52.127Z,10.25
2018-11-14T02:37:19.575Z,8.20
2018-11-14T02:39:47.113Z,8.53
2018-11-14T02:51:28.830Z,9.50
2018-11-14T03:01:22.795Z,11.27
2018-11-14T03:03:56.822Z,13.43
2018-11-14T03:06:24.494Z,14.10
2018-11-14T03:08:52.700Z,14.50
2018-11-14T03:11:21.333Z,12.63
2018-11-14T03:13:49.597Z,15.50
2018-11-14T03:16:18.466Z,14.55
2018-11-14T03:18:48.419Z,11.90
2018-11-14T03:21:16.777Z,12.63
2018-11-14T03:23:44.352Z,11.57
2018-11-14T03:26:13.119Z,10.78
2018-11-14T03:28:40.699Z,13.13
2018-11-14T03:31:08.279Z,11.88
2018-11-14T03:33:35.878Z,12.93
2018-11-14T03:36:13.671Z,13.08
2018-11-14T03:38:41.193Z,13.45
2018-11-14T03:41:08.806Z,13.40
2018-11-14T03:43:36.298Z,13.15
2018-11-14T03:46:03.791Z,13.38
2018-11-14T03:48:31.349Z,12.73
2018-11-14T03:50:58.909Z,12.35
2018-11-14T03:53:26.450Z,11.45
2018-11-14T03:55:53.913Z,13.08
2018-11-14T03:58:21.565Z,13.38
2018-11-14T04:00:48.947Z,13.53
2018-11-14T04:03:16.481Z,12.20
2018-11-14T04:05:44.035Z,11.90
2018-11-14T04:08:11.597Z,12.50
2018-11-14T04:10:39.078Z,16.23
2018-11-14T04:13:06.630Z,15.68
2018-11-14T04:15:34.133Z,17.23
2018-11-14T04:18:02.037Z,21.10
2018-11-14T04:20:29.502Z,13.80
2018-11-14T04:22:57.057Z,12.55
2018-11-14T04:25:24.520Z,14.45
2018-11-14T04:27:52.049Z,16.12
2018-11-14T04:30:20.743Z,13.75
2018-11-14T04:32:48.366Z,13.68
2018-11-14T04:35:16.678Z,13.45
2018-11-14T04:37:44.319Z,14.60
2018-11-14T04:40:14.870Z,14.75
2018-11-14T04:42:42.423Z,15.40
2018-11-14T04:45:11.824Z,16.40
2018-11-14T04:47:39.479Z,13.88
2018-11-14T04:50:09.069Z,13.53
2018-11-14T04:52:36.695Z,14.05
2018-11-14T04:55:05.741Z,13.10
2018-11-14T04:57:33.254Z,15.43
2018-11-14T05:00:00.875Z,12.55
2018-11-14T05:02:28.507Z,14.05
2018-11-14T05:04:55.962Z,14.83
2018-11-14T05:07:23.494Z,14.03
2018-11-14T05:09:51.077Z,15.60
2018-11-14T05:12:18.570Z,16.30
2018-11-14T05:14:46.110Z,17.48
2018-11-14T05:17:13.592Z,14.98
2018-11-14T05:19:41.149Z,14.38
2018-11-14T05:22:08.617Z,13.40
2018-11-14T05:24:36.224Z,15.53
2018-11-14T05:27:03.992Z,14.13
2018-11-14T05:29:31.557Z,13.90
2018-11-14T05:31:59.055Z,13.98
2018-11-14T05:34:26.590Z,17.02
2018-11-14T05:36:54.162Z,13.75
2018-11-14T05:39:21.673Z,13.18
2018-11-14T05:41:53.836Z,13.43
2018-11-14T05:44:23.945Z,15.40
2018-11-14T05:46:56.626Z,14.80
2018-11-14T05:49:34.415Z,15.72
2018-11-14T05:52:04.692Z,16.82
2018-11-14T05:54:35.302Z,15.55
2018-11-14T05:57:04.615Z,18.17
2018-11-14T05:59:35.347Z,14.68
2018-11-14T06:02:05.801Z,14.98
2018-11-14T06:04:33.343Z,14.63
2018-11-14T06:07:00.992Z,17.37
2018-11-14T06:09:28.429Z,17.80
2018-11-14T06:11:55.993Z,15.32
2018-11-14T06:14:23.477Z,13.15
2018-11-14T06:16:51.022Z,16.12
2018-11-14T06:19:18.481Z,16.12
2018-11-14T06:21:46.041Z,18.50
2018-11-14T06:24:13.507Z,17.02
2018-11-14T06:26:41.415Z,15.32
2018-11-14T06:29:08.878Z,15.80
2018-11-14T06:31:36.462Z,17.85
2018-11-14T06:34:04.406Z,18.12
2018-11-14T06:36:31.995Z,15.93
2018-11-14T06:38:59.493Z,17.07
2018-11-14T06:41:26.968Z,18.07
2018-11-14T06:43:58.366Z,16.07
2018-11-14T06:46:25.814Z,22.93
2018-11-14T06:48:54.360Z,21.70
2018-11-14T06:51:21.832Z,17.60
2018-11-14T06:53:49.429Z,22.25
2018-11-14T06:56:16.902Z,23.32
2018-11-14T06:58:44.494Z,17.12
2018-11-14T07:01:13.086Z,20.27
2018-11-14T07:07:18.778Z,19.07
2018-11-14T07:09:46.346Z,21.55
2018-11-14T07:12:13.825Z,17.37
2018-11-14T07:14:41.367Z,16.30
2018-11-14T07:17:08.814Z,17.02
2018-11-14T07:19:36.381Z,20.23
2018-11-14T07:22:04.286Z,19.75
2018-11-14T07:24:32.682Z,16.55
2018-11-14T07:27:02.152Z,16.42
2018-11-14T07:29:29.698Z,15.90
2018-11-14T07:31:57.201Z,19.27
2018-11-14T07:34:24.745Z,17.35
2018-11-14T07:36:52.219Z,25.10
2018-11-14T07:39:19.981Z,18.52
2018-11-14T07:41:47.520Z,17.57
2018-11-14T07:44:15.003Z,20.55
2018-11-14T07:46:42.554Z,21.07
2018-11-14T07:49:10.121Z,17.37
2018-11-14T07:51:37.628Z,15.83
2018-11-14T07:54:05.433Z,17.80
2018-11-14T07:56:34.013Z,20.25
2018-11-14T07:59:02.079Z,16.05
2018-11-14T08:01:30.246Z,18.42
2018-11-14T08:03:57.952Z,18.02
2018-11-14T08:06:26.065Z,16.30
2018-11-14T08:08:53.661Z,16.52
2018-11-14T08:11:21.231Z,19.20
2018-11-14T08:13:48.982Z,23.32
2018-11-14T08:16:18.691Z,23.32
2018-11-14T08:18:46.292Z,19.10
2018-11-14T08:21:13.838Z,23.10
2018-11-14T08:23:41.402Z,19.92
2018-11-14T08:26:08.917Z,21.02
2018-11-14T08:28:36.465Z,19.92
2018-11-14T08:31:03.997Z,18.75
2018-11-14T08:33:31.594Z,21.62
2018-11-14T08:35:59.101Z,26.30
2018-11-14T08:38:26.756Z,24.98
2018-11-14T08:40:57.460Z,21.48
2018-11-14T08:43:25.142Z,25.23
2018-11-14T08:45:53.495Z,19.20
2018-11-14T08:48:21.021Z,19.85
2018-11-14T08:50:48.524Z,23.12
2018-11-14T08:53:16.165Z,21.27
2018-11-14T08:55:43.647Z,19.77
2018-11-14T08:58:12.019Z,17.98
2018-11-14T09:00:39.629Z,19.37
2018-11-14T09:03:08.897Z,20.12
2018-11-14T09:05:36.465Z,19.12
2018-11-14T09:08:04.091Z,18.92
2018-11-14T09:10:31.838Z,18.95
2018-11-14T09:13:01.018Z,19.85
2018-11-14T09:15:28.886Z,19.00
2018-11-14T09:17:56.575Z,22.20
2018-11-14T09:20:25.452Z,19.15
2018-11-14T09:22:53.040Z,18.98
2018-11-14T09:25:22.922Z,19.50
2018-11-14T09:27:50.610Z,21.10
2018-11-14T09:30:19.607Z,18.07
2018-11-14T09:32:47.865Z,18.25
2018-11-14T09:35:16.575Z,17.92
2018-11-14T09:37:44.067Z,21.25
2018-11-14T09:40:13.706Z,20.15
2018-11-14T09:42:41.213Z,24.02
2018-11-14T09:45:12.237Z,21.17
2018-11-14T09:47:40.075Z,17.00
2018-11-14T09:50:11.225Z,23.47
2018-11-14T09:52:38.895Z,19.35
2018-11-14T09:55:08.547Z,22.58
2018-11-14T09:57:38.003Z,16.27
2018-11-14T10:00:09.398Z,18.85
2018-11-14T10:02:36.984Z,17.80
2018-11-14T10:05:07.233Z,15.25
2018-11-14T10:07:35.728Z,17.60
2018-11-14T10:10:04.365Z,14.23
2018-11-14T10:12:31.956Z,13.88
2018-11-14T10:14:59.959Z,13.28
2018-11-14T10:17:28.014Z,14.38
2018-11-14T10:19:55.530Z,12.33
2018-11-14T10:22:23.074Z,12.00
2018-11-14T10:24:50.562Z,14.55
2018-11-14T10:27:18.124Z,14.58
2018-11-14T10:29:46.150Z,13.32
2018-11-14T10:32:13.770Z,11.43
2018-11-14T10:34:41.236Z,11.55
2018-11-14T10:37:08.810Z,11.63
2018-11-14T10:39:36.273Z,11.18
2018-11-14T10:42:03.862Z,12.35
2018-11-14T10:44:31.413Z,10.40
2018-11-14T10:46:58.900Z,11.57
2018-11-14T10:49:26.459Z,12.60
2018-11-14T10:51:53.973Z,12.65
2018-11-14T10:54:21.733Z,11.53
2018-11-14T10:56:49.210Z,10.75
2018-11-14T10:59:16.737Z,14.33
2018-11-14T11:01:50.818Z,11.40
2018-11-14T11:04:24.773Z,10.15
2018-11-14T11:06:59.428Z,11.05
2018-11-14T11:09:32.909Z,11.38
2018-11-14T11:12:06.119Z,9.05
2018-11-14T11:14:36.509Z,8.40
2018-11-14T11:17:09.638Z,8.83
2018-11-14T11:19:37.203Z,9.10
2018-11-14T11:22:05.528Z,8.65
2018-11-14T11:24:33.142Z,11.50
2018-11-14T11:27:00.931Z,9.80
2018-11-14T11:29:29.846Z,9.80
2018-11-14T11:31:57.420Z,16.50
2018-11-14T11:34:24.946Z,11.53
2018-11-14T11:36:52.598Z,10.03
2018-11-14T11:39:20.137Z,9.75
2018-11-14T11:41:48.760Z,9.38
2018-11-14T11:44:16.331Z,9.53
2018-11-14T11:46:44.521Z,8.85
2018-11-14T11:49:12.486Z,8.65
2018-11-14T11:51:40.154Z,8.73
2018-11-14T11:54:07.944Z,11.78
2018-11-14T11:56:35.763Z,12.68
2018-11-14T11:59:03.751Z,7.60
2018-11-14T12:01:31.479Z,7.25
2018-11-14T12:03:59.050Z,7.55
2018-11-14T12:06:27.165Z,7.40
2018-11-14T12:08:54.644Z,7.25
2018-11-14T12:11:22.527Z,8.35
2018-11-14T12:13:50.263Z,9.23
2018-11-14T12:16:17.746Z,8.70
2018-11-14T12:18:45.305Z,8.18
2018-11-14T12:21:12.916Z,7.70
2018-11-14T12:23:40.595Z,9.70
2018-11-14T12:26:07.980Z,8.13
2018-11-14T12:28:35.577Z,7.33
2018-11-14T12:31:03.235Z,7.05
2018-11-14T12:33:30.685Z,7.42
2018-11-14T12:35:58.198Z,6.35
2018-11-14T12:38:25.753Z,7.22
2018-11-14T12:40:53.222Z,7.42
2018-11-14T12:43:20.922Z,8.35
2018-11-14T12:45:48.405Z,9.43
2018-11-14T12:48:15.998Z,7.97
2018-11-14T12:50:43.588Z,7.35
2018-11-14T12:53:11.218Z,7.30
2018-11-14T12:55:38.802Z,9.70
2018-11-14T12:58:06.342Z,7.95
2018-11-14T13:00:33.884Z,7.30
2018-11-14T13:03:01.447Z,7.83
2018-11-14T13:05:29.048Z,6.80
2018-11-14T13:07:56.574Z,7.87
2018-11-14T13:10:24.121Z,9.23
2018-11-14T13:12:51.733Z,6.65
2018-11-14T13:15:20.013Z,7.25
2018-11-14T13:17:47.582Z,8.13
2018-11-14T13:20:17.433Z,8.28
2018-11-14T13:22:45.192Z,8.43
2018-11-14T13:25:13.432Z,8.63
2018-11-14T13:27:42.002Z,8.00
2018-11-14T13:30:11.637Z,7.62
2018-11-14T13:32:39.279Z,9.28
2018-11-14T13:35:08.879Z,7.87
2018-11-14T13:37:36.421Z,8.28
2018-11-14T13:40:04.717Z,8.25
2018-11-14T13:42:32.271Z,8.33
2018-11-14T13:44:59.762Z,8.28
2018-11-14T13:47:27.308Z,7.50
2018-11-14T13:49:54.985Z,8.68
2018-11-14T13:52:22.382Z,8.23
2018-11-14T13:54:50.020Z,8.35
2018-11-14T13:57:17.703Z,9.30
2018-11-14T13:59:45.329Z,10.32
2018-11-14T14:02:12.907Z,9.43
2018-11-14T14:04:40.393Z,8.93
2018-11-14T14:07:07.981Z,9.20
2018-11-14T14:09:35.498Z,7.78
2018-11-14T14:12:02.985Z,7.83
2018-11-14T14:14:30.614Z,6.92
2018-11-14T14:16:58.139Z,7.45
2018-11-14T14:19:25.795Z,6.72
2018-11-14T14:21:53.337Z,7.37
2018-11-14T14:24:20.915Z,11.85
2018-11-14T14:26:48.364Z,7.25
2018-11-14T14:29:15.945Z,6.78
2018-11-14T14:31:43.445Z,6.95
2018-11-14T14:34:11.126Z,7.17
2018-11-14T14:36:38.650Z,6.30
2018-11-14T14:39:08.231Z,6.25
2018-11-14T14:41:35.734Z,6.17
2018-11-14T14:44:03.419Z,10.60
2018-11-14T14:46:31.001Z,6.90
2018-11-14T14:48:58.618Z,6.20
2018-11-14T14:51:26.156Z,5.33
2018-11-14T14:53:53.682Z,6.33
2018-11-14T14:56:21.378Z,4.85
2018-11-14T14:58:48.920Z,5.40
2018-11-14T15:01:16.519Z,5.35
2018-11-14T15:03:44.104Z,6.83
2018-11-14T15:06:11.644Z,5.28
2018-11-14T15:08:39.129Z,4.35
2018-11-14T15:11:06.663Z,7.50
2018-11-14T15:13:34.169Z,6.78
2018-11-14T15:16:02.203Z,5.00
2018-11-14T15:18:29.768Z,5.42
2018-11-14T15:20:57.338Z,6.83
2018-11-14T15:23:24.843Z,7.25
2018-11-14T15:25:52.419Z,4.95
2018-11-14T15:28:19.948Z,5.30
2018-11-14T15:30:47.471Z,4.03
2018-11-14T15:33:15.071Z,5.62
2018-11-14T15:35:42.620Z,7.25
2018-11-14T15:38:10.255Z,5.28
2018-11-14T15:40:37.808Z,6.50
2018-11-14T15:43:05.492Z,4.17
2018-11-14T15:45:32.989Z,5.67
2018-11-14T15:48:00.979Z,5.97
2018-11-14T15:50:29.568Z,5.08
2018-11-14T15:52:57.856Z,10.32
2018-11-14T15:55:25.427Z,6.62
2018-11-14T15:57:53.096Z,6.58
2018-11-14T16:00:23.971Z,5.67
2018-11-14T16:02:51.551Z,8.38
2018-11-14T16:05:20.382Z,6.67
2018-11-14T16:07:49.310Z,6.05
2018-11-14T16:10:18.158Z,5.50
2018-11-14T16:12:45.942Z,6.78
2018-11-14T16:15:15.605Z,6.08
2018-11-14T16:17:43.222Z,4.37
2018-11-14T16:20:13.199Z,5.45
2018-11-14T16:22:40.746Z,9.45
2018-11-14T16:25:10.905Z,5.33
2018-11-14T16:27:38.817Z,11.95
2018-11-14T16:30:12.277Z,8.30
2018-11-14T16:32:39.846Z,7.75
2018-11-14T16:35:07.453Z,5.85
2018-11-14T16:37:34.977Z,7.12
2018-11-14T16:40:02.731Z,6.10
2018-11-14T16:42:30.265Z,8.10
2018-11-14T16:44:57.857Z,8.15
2018-11-14T16:47:25.377Z,6.20
2018-11-14T16:49:52.980Z,8.80
2018-11-14T16:52:20.603Z,10.35
2018-11-14T16:54:48.211Z,9.43
2018-11-14T16:57:15.843Z,8.63
2018-11-14T16:59:43.467Z,8.40
2018-11-14T17:02:11.099Z,8.55
2018-11-14T17:04:38.630Z,7.12
2018-11-14T17:07:06.257Z,7.00
2018-11-14T17:09:33.818Z,5.62
2018-11-14T17:12:01.440Z,6.22
2018-11-14T17:14:29.058Z,6.15
2018-11-14T17:16:56.676Z,8.00
2018-11-14T17:19:24.286Z,7.65
2018-11-14T17:21:51.940Z,11.05
2018-11-14T17:24:19.558Z,7.58
2018-11-14T17:26:47.165Z,7.10
2018-11-14T17:29:14.745Z,7.03
2018-11-14T17:31:42.318Z,6.25
2018-11-14T17:34:09.838Z,9.28
2018-11-14T17:36:37.431Z,6.62
2018-11-14T17:39:08.354Z,7.05
2018-11-14T17:41:36.040Z,9.33
2018-11-14T17:44:03.678Z,8.90
2018-11-14T17:46:31.158Z,11.35
2018-11-14T17:48:58.759Z,7.47
2018-11-14T17:51:26.259Z,7.17
2018-11-14T17:53:53.911Z,7.25
2018-11-14T17:56:21.465Z,8.30
2018-11-14T17:58:49.063Z,8.55
2018-11-14T18:01:16.625Z,7.75
2018-11-14T18:03:44.222Z,8.45
2018-11-14T18:06:11.770Z,8.35
2018-11-14T18:08:39.339Z,9.08
2018-11-14T18:11:06.857Z,8.98
2018-11-14T18:13:34.474Z,9.60
2018-11-14T18:16:02.114Z,13.30
2018-11-14T18:18:29.704Z,9.45
2018-11-14T18:20:57.180Z,10.03
2018-11-14T18:23:24.771Z,9.58
2018-11-14T18:25:52.365Z,13.85
2018-11-14T18:28:20.030Z,9.90
2018-11-14T18:30:47.671Z,9.90
2018-11-14T18:33:15.218Z,10.40
2018-11-14T18:35:42.888Z,11.03
2018-11-14T18:38:10.418Z,11.85
2018-11-14T18:40:38.039Z,11.25
2018-11-14T18:43:05.654Z,12.65
2018-11-14T18:45:34.626Z,12.85
2018-11-14T18:48:02.810Z,11.78
2018-11-14T18:50:30.529Z,15.18
2018-11-14T18:52:58.184Z,13.50
2018-11-14T18:55:28.131Z,14.13
2018-11-14T18:57:56.144Z,11.48
2018-11-14T19:00:29.833Z,14.07
2018-11-14T19:02:57.625Z,11.63
2018-11-14T19:05:26.300Z,13.13
2018-11-14T19:07:54.004Z,11.85
2018-11-14T19:10:23.890Z,15.48
2018-11-14T19:12:52.074Z,13.83
2018-11-14T19:15:20.915Z,13.08
2018-11-14T19:17:48.573Z,14.07
2018-11-14T19:20:18.685Z,14.20
2018-11-14T19:22:46.353Z,14.05
2018-11-14T19:25:15.200Z,13.18
2018-11-14T19:27:43.810Z,15.15
2018-11-14T19:30:13.692Z,15.88
2018-11-14T19:32:42.000Z,16.57
2018-11-14T19:35:13.122Z,15.68
2018-11-14T19:37:43.307Z,16.95
2018-11-14T19:40:14.112Z,15.20
2018-11-14T19:42:42.208Z,16.42
2018-11-14T19:45:12.675Z,16.65
2018-11-14T19:47:40.988Z,17.23
2018-11-14T19:50:10.530Z,16.57
2018-11-14T19:52:38.448Z,16.65
2018-11-14T19:55:07.371Z,17.12
2018-11-14T19:57:34.900Z,16.80
2018-11-14T20:00:03.079Z,17.20
2018-11-14T20:02:31.125Z,18.25
2018-11-14T20:04:58.713Z,17.32
2018-11-14T20:07:26.230Z,17.35
2018-11-14T20:10:00.892Z,16.70
2018-11-14T20:12:31.064Z,19.80
2018-11-14T20:15:02.251Z,17.17
2018-11-14T20:17:32.727Z,18.75
2018-11-14T20:20:04.862Z,16.32
2018-11-14T20:22:36.249Z,17.85
2018-11-14T20:25:05.479Z,16.97
2018-11-14T20:27:33.391Z,17.98
2018-11-14T20:30:02.093Z,19.25
2018-11-14T20:32:30.256Z,19.70
2018-11-14T20:35:00.619Z,19.20
2018-11-14T20:37:29.578Z,18.12
2018-11-14T20:39:58.094Z,20.55
2018-11-14T20:42:26.445Z,22.13
2018-11-14T20:44:54.112Z,20.50
2018-11-14T20:47:22.559Z,21.23
2018-11-14T20:49:50.953Z,18.98
2018-11-14T20:52:21.917Z,19.50
2018-11-14T20:54:49.582Z,21.73
2018-11-14T20:57:19.872Z,24.43
2018-11-14T20:59:47.426Z,20.60
2018-11-14T21:02:18.657Z,19.32
2018-11-14T21:04:46.247Z,17.70
2018-11-14T21:07:13.829Z,22.65
2018-11-14T21:09:41.397Z,21.77
2018-11-14T21:12:09.005Z,19.85
2018-11-14T21:14:36.530Z,19.23
2018-11-14T21:17:04.170Z,18.48
2018-11-14T21:19:31.771Z,21.12
2018-11-14T21:21:59.321Z,19.40
2018-11-14T21:24:26.902Z,18.12
2018-11-14T21:26:54.445Z,20.90
2018-11-14T21:29:22.070Z,18.40
2018-11-14T21:31:49.623Z,17.77
2018-11-14T21:34:17.230Z,22.87
2018-11-14T21:36:44.786Z,19.73
2018-11-14T21:39:13.668Z,18.12
2018-11-14T21:41:41.661Z,21.02
2018-11-14T21:44:09.323Z,22.25
2018-11-14T21:46:36.906Z,20.00
2018-11-14T21:49:09.654Z,23.22
2018-11-14T21:51:37.359Z,19.23
2018-11-14T21:54:05.034Z,20.77
2018-11-14T21:56:32.529Z,17.87
2018-11-14T21:59:00.155Z,19.62
2018-11-14T22:01:27.678Z,20.88
2018-11-14T22:03:55.275Z,21.30
2018-11-14T22:06:22.810Z,22.00
2018-11-14T22:08:50.383Z,25.12
2018-11-14T22:11:17.926Z,24.47
2018-11-14T22:13:45.466Z,19.37
2018-11-14T22:16:13.037Z,21.33
2018-11-14T22:18:40.589Z,23.42
2018-11-14T22:21:08.186Z,23.55
2018-11-14T22:23:35.692Z,21.87
2018-11-14T22:26:03.335Z,20.37
2018-11-14T22:28:30.814Z,21.40
2018-11-14T22:30:58.388Z,21.30
2018-11-14T22:33:25.886Z,20.25
2018-11-14T22:35:53.470Z,21.17
2018-11-14T22:38:20.953Z,22.93
2018-11-14T22:40:48.502Z,20.02
2018-11-14T22:43:15.992Z,23.87
2018-11-14T22:45:43.587Z,22.37
2018-11-14T22:48:11.135Z,22.22
2018-11-14T22:50:38.698Z,25.00
2018-11-14T22:53:06.258Z,25.10
2018-11-14T22:55:33.817Z,25.30
2018-11-14T22:58:01.343Z,22.17
2018-11-14T23:00:44.228Z,27.10
2018-11-14T23:03:11.856Z,26.97
2018-11-14T23:05:39.353Z,23.57
2018-11-14T23:08:07.074Z,25.57
2018-11-14T23:10:34.610Z,24.90
2018-11-14T23:13:02.158Z,22.52
2018-11-14T23:15:29.679Z,22.98
2018-11-14T23:17:57.165Z,22.93
2018-11-14T23:20:24.632Z,23.15
2018-11-14T23:22:52.731Z,23.07
2018-11-14T23:25:20.740Z,22.22
2018-11-14T23:27:49.614Z,24.00
2018-11-14T23:30:18.357Z,23.30
2018-11-14T23:32:47.102Z,20.80
2018-11-14T23:35:14.719Z,20.32
2018-11-14T23:37:42.595Z,23.52
2018-11-14T23:40:10.311Z,20.23
2018-11-14T23:42:37.808Z,25.23
2018-11-14T23:45:07.778Z,25.82
2018-11-14T23:47:35.244Z,23.27
2018-11-14T23:50:03.273Z,20.40
2018-11-14T23:52:30.727Z,22.58
2018-11-14T23:54:58.298Z,22.62
2018-11-14T23:57:25.779Z,22.42
2018-11-14T23:59:53.340Z,23.45
